Raton, New Mexico
Current Conditions -  °F | °C
As of 10:53 PM on Friday 24 Oct 2014 (Local Time) from KRTN Reporting Station
Clear Clear  
Wind Chill: 46°   Ceiling: Unl
Heat Index: 49°   Visibility: 10mi
Dew Point: 31°   Wind: 7mph
Humidity: 50%   Direction: 20°NNE
Pressure: 30.3"   Gusts: NA
Location:  36.91°N, 104.43°W
Report Text: KRTN 250453Z AUTO 02006KT 10SM CLR 09/M01 A3030 RMK AO2 SLP195 T00941006
Loading
Personal Weather Stations






























Interactive Weather Map
Tropical Storm Tracking
New forecast layout! Learn more

10-Day Weather Forecast

Advertisements
Track Severe Weather on mobile